createdAt,value
2023-03-06T00:02:41.064Z,0.85
2023-03-06T00:05:43.218Z,1.30
2023-03-06T00:08:45.929Z,1.80
2023-03-06T00:11:47.982Z,0.80
2023-03-06T00:14:51.287Z,0.85
2023-03-06T00:17:54.362Z,0.93
2023-03-06T00:20:58.231Z,0.90
2023-03-06T00:24:02.197Z,0.90
2023-03-06T00:27:05.154Z,1.27
2023-03-06T00:30:11.030Z,0.93
2023-03-06T00:33:13.467Z,0.82
2023-03-06T00:36:15.771Z,0.90
2023-03-06T00:39:18.690Z,1.20
2023-03-06T00:42:21.474Z,0.80
2023-03-06T00:45:23.919Z,1.50
2023-03-06T00:48:26.294Z,0.98
2023-03-06T00:51:28.778Z,0.70
2023-03-06T00:54:30.754Z,0.90
2023-03-06T00:57:33.376Z,1.00
2023-03-06T01:00:36.025Z,0.88
2023-03-06T01:03:38.417Z,0.80
2023-03-06T01:06:40.494Z,0.88
2023-03-06T01:09:44.824Z,1.10
2023-03-06T01:12:47.300Z,1.00
2023-03-06T01:15:50.035Z,0.80
2023-03-06T01:18:52.318Z,0.93
2023-03-06T01:21:54.896Z,0.95
2023-03-06T01:24:57.192Z,0.90
2023-03-06T01:28:01.483Z,0.90
2023-03-06T01:31:06.211Z,0.63
2023-03-06T01:34:08.593Z,1.00
2023-03-06T01:37:10.653Z,1.00
2023-03-06T01:40:13.820Z,1.00
2023-03-06T01:43:26.427Z,1.00
2023-03-06T01:46:42.538Z,0.65
2023-03-06T01:49:44.569Z,1.17
2023-03-06T01:52:52.597Z,0.80
2023-03-06T01:55:55.924Z,0.80
2023-03-06T01:59:00.317Z,1.33
2023-03-06T02:02:05.342Z,0.70
2023-03-06T02:05:08.441Z,0.80
2023-03-06T02:08:15.493Z,0.63
2023-03-06T02:11:22.058Z,0.73
2023-03-06T02:14:24.812Z,0.63
2023-03-06T02:17:27.882Z,0.90
2023-03-06T02:20:43.911Z,0.73
2023-03-06T02:24:07.913Z,0.57
2023-03-06T02:27:15.153Z,0.70
2023-03-06T02:30:19.004Z,0.70
2023-03-06T02:33:24.999Z,0.55
2023-03-06T02:36:28.223Z,0.73
2023-03-06T02:39:34.201Z,0.75
2023-03-06T02:42:38.276Z,0.77
2023-03-06T02:45:45.648Z,1.17
2023-03-06T02:48:48.429Z,0.70
2023-03-06T02:51:50.486Z,0.80
2023-03-06T02:54:53.549Z,0.55
2023-03-06T02:57:55.981Z,0.65
2023-03-06T03:00:59.737Z,0.60
2023-03-06T03:04:02.277Z,0.55
2023-03-06T03:07:05.397Z,0.70
2023-03-06T03:10:10.736Z,0.73
2023-03-06T03:13:13.665Z,0.60
2023-03-06T03:16:17.646Z,0.90
2023-03-06T03:19:20.189Z,0.60
2023-03-06T03:22:23.017Z,0.65
2023-03-06T03:25:26.559Z,0.60
2023-03-06T03:28:31.330Z,0.73
2023-03-06T03:31:33.868Z,0.60
2023-03-06T03:34:37.765Z,0.40
2023-03-06T03:37:41.736Z,0.55
2023-03-06T03:40:44.615Z,0.70
2023-03-06T03:43:47.685Z,0.88
2023-03-06T03:46:50.081Z,0.60
2023-03-06T03:49:56.537Z,1.60
2023-03-06T03:53:00.089Z,1.05
2023-03-06T03:56:04.227Z,0.73
2023-03-06T03:59:09.850Z,0.88
2023-03-06T04:02:22.186Z,0.80
2023-03-06T04:05:44.816Z,0.70
2023-03-06T04:08:50.097Z,1.00
2023-03-06T04:11:52.567Z,1.20
2023-03-06T04:14:58.343Z,1.20
2023-03-06T04:18:01.178Z,0.90
2023-03-06T04:21:06.123Z,0.88
2023-03-06T04:24:09.426Z,1.17
2023-03-06T04:27:13.029Z,0.90
2023-03-06T04:30:15.260Z,1.13
2023-03-06T04:33:18.218Z,0.93
2023-03-06T04:36:39.085Z,0.82
2023-03-06T04:39:46.122Z,0.60
2023-03-06T04:42:49.564Z,0.70
2023-03-06T04:45:52.278Z,1.57
2023-03-06T04:48:54.758Z,0.70
2023-03-06T04:51:57.424Z,0.60
2023-03-06T04:55:00.928Z,0.90
2023-03-06T04:58:04.208Z,0.80
2023-03-06T05:01:06.649Z,1.02
2023-03-06T05:04:09.327Z,0.80
2023-03-06T05:07:11.318Z,0.63
2023-03-06T05:10:17.377Z,1.05
2023-03-06T05:13:21.264Z,0.90
2023-03-06T05:16:23.675Z,0.77
2023-03-06T05:19:25.860Z,0.70
2023-03-06T05:22:28.229Z,0.68
2023-03-06T05:25:30.436Z,0.65
2023-03-06T05:28:32.907Z,0.70
2023-03-06T05:31:35.426Z,0.90
2023-03-06T05:34:40.212Z,1.00
2023-03-06T05:37:42.446Z,0.80
2023-03-06T05:40:49.109Z,0.90
2023-03-06T05:43:54.014Z,0.80
2023-03-06T05:46:56.508Z,0.77
2023-03-06T05:49:58.831Z,0.73
2023-03-06T05:53:01.632Z,0.85
2023-03-06T05:56:06.368Z,1.17
2023-03-06T05:59:08.923Z,0.90
2023-03-06T06:02:11.053Z,0.88
2023-03-06T06:05:14.281Z,1.02
2023-03-06T06:08:17.389Z,1.40
2023-03-06T06:11:21.035Z,0.88
2023-03-06T06:14:23.121Z,0.70
2023-03-06T06:17:27.922Z,0.70
2023-03-06T06:20:30.180Z,0.50
2023-03-06T06:23:34.640Z,0.70
2023-03-06T06:26:36.755Z,0.77
2023-03-06T06:29:39.113Z,0.70
2023-03-06T06:32:41.443Z,0.82
2023-03-06T06:35:43.903Z,0.60
2023-03-06T06:38:46.040Z,1.27
2023-03-06T06:42:05.469Z,0.80
2023-03-06T06:45:13.038Z,0.80
2023-03-06T06:48:16.783Z,0.55
2023-03-06T06:51:22.063Z,0.55
2023-03-06T06:54:25.025Z,0.30
2023-03-06T06:57:27.955Z,0.20
2023-03-06T07:00:30.735Z,0.30
2023-03-06T07:03:33.576Z,0.20
2023-03-06T07:06:36.464Z,0.10
2023-03-06T07:09:40.774Z,0.30
2023-03-06T07:15:45.344Z,0.38
2023-03-06T07:18:48.293Z,0.32
2023-03-06T07:21:51.009Z,0.25
2023-03-06T07:24:53.486Z,0.30
2023-03-06T07:27:59.384Z,1.00
2023-03-06T07:31:02.178Z,0.22
2023-03-06T07:34:05.161Z,0.30
2023-03-06T07:37:07.986Z,0.43
2023-03-06T07:40:12.631Z,0.43
2023-03-06T07:43:19.385Z,0.55
2023-03-06T07:46:31.386Z,0.47
2023-03-06T07:49:34.300Z,0.40
2023-03-06T07:52:36.813Z,1.02
2023-03-06T07:55:41.690Z,0.40
2023-03-06T07:58:47.120Z,0.85
2023-03-06T08:01:49.567Z,0.45
2023-03-06T08:04:53.452Z,0.80
2023-03-06T08:07:57.794Z,0.45
2023-03-06T08:10:59.792Z,0.85
2023-03-06T08:14:02.675Z,0.50
2023-03-06T08:17:05.499Z,0.77
2023-03-06T08:20:10.499Z,0.60
2023-03-06T08:26:18.266Z,0.25
2023-03-06T08:29:24.050Z,0.43
2023-03-06T08:32:29.306Z,0.60
2023-03-06T08:35:31.749Z,0.50
2023-03-06T08:38:34.531Z,0.60
2023-03-06T08:41:37.570Z,0.57
2023-03-06T08:44:40.962Z,0.70
2023-03-06T08:47:43.424Z,0.55
2023-03-06T08:50:46.362Z,0.20
2023-03-06T08:53:49.076Z,0.60
2023-03-06T08:56:52.039Z,0.43
2023-03-06T08:59:54.180Z,0.30
2023-03-06T09:02:56.676Z,0.50
2023-03-06T09:05:59.833Z,0.70
2023-03-06T09:09:03.289Z,0.40
2023-03-06T09:12:06.168Z,0.38
2023-03-06T09:15:10.134Z,0.80
2023-03-06T09:18:12.961Z,0.40
2023-03-06T09:21:16.063Z,0.50
2023-03-06T09:24:18.684Z,0.38
2023-03-06T09:27:23.403Z,0.30
2023-03-06T09:30:26.006Z,0.30
2023-03-06T09:33:28.861Z,0.45
2023-03-06T09:36:31.363Z,0.28
2023-03-06T09:39:33.782Z,0.30
2023-03-06T09:42:36.232Z,0.63
2023-03-06T09:45:42.625Z,0.63
2023-03-06T09:48:50.806Z,0.68
2023-03-06T09:52:14.240Z,0.57
2023-03-06T09:55:27.254Z,0.35
2023-03-06T09:58:34.301Z,0.68
2023-03-06T10:01:42.970Z,0.82
2023-03-06T10:04:50.414Z,0.30
2023-03-06T10:08:12.544Z,0.60
2023-03-06T10:11:19.890Z,0.52
2023-03-06T10:14:31.825Z,0.68
2023-03-06T10:17:41.174Z,0.80
2023-03-06T10:21:18.795Z,0.50
2023-03-06T10:24:54.310Z,0.77
2023-03-06T10:28:15.208Z,0.52
2023-03-06T10:31:26.732Z,0.80
2023-03-06T10:34:33.214Z,0.55
2023-03-06T10:37:35.744Z,0.40
2023-03-06T10:40:47.734Z,0.70
2023-03-06T10:44:05.841Z,0.73
2023-03-06T10:47:28.459Z,0.40
2023-03-06T10:50:31.756Z,0.47
2023-03-06T10:53:34.686Z,0.57
2023-03-06T10:56:40.301Z,0.43
2023-03-06T11:00:00.640Z,0.50
2023-03-06T11:03:18.693Z,0.40
2023-03-06T11:06:35.826Z,0.52
2023-03-06T11:09:39.177Z,0.30
2023-03-06T11:12:43.697Z,0.40
2023-03-06T11:15:57.883Z,0.40
2023-03-06T11:19:17.741Z,0.20
2023-03-06T11:22:20.613Z,0.40
2023-03-06T11:25:28.343Z,0.50
2023-03-06T11:28:35.047Z,0.50
2023-03-06T11:31:42.828Z,0.60
2023-03-06T11:34:53.879Z,0.30
2023-03-06T11:38:12.825Z,0.30
2023-03-06T11:41:32.797Z,0.32
2023-03-06T11:45:19.507Z,0.40
2023-03-06T11:48:28.872Z,0.45
2023-03-06T11:51:38.338Z,0.40
2023-03-06T11:54:41.139Z,0.40
2023-03-06T11:58:02.683Z,0.47
2023-03-06T12:01:31.638Z,0.50
2023-03-06T12:04:42.667Z,0.40
2023-03-06T12:07:48.729Z,0.57
2023-03-06T12:10:58.210Z,0.50
2023-03-06T12:14:29.195Z,0.50
2023-03-06T12:17:53.144Z,0.30
2023-03-06T12:21:05.308Z,0.50
2023-03-06T12:24:35.689Z,0.40
2023-03-06T12:27:52.173Z,0.55
2023-03-06T12:30:57.695Z,0.50
2023-03-06T12:34:00.668Z,0.52
2023-03-06T12:37:09.402Z,0.50
2023-03-06T12:40:49.329Z,0.45
2023-03-06T12:44:00.686Z,0.50
2023-03-06T12:47:11.844Z,0.40
2023-03-06T12:50:33.166Z,0.30
2023-03-06T12:53:36.660Z,0.50
2023-03-06T12:56:39.982Z,0.55
2023-03-06T12:59:48.628Z,0.50
2023-03-06T13:03:21.906Z,0.52
2023-03-06T13:06:59.441Z,0.50
2023-03-06T13:10:11.315Z,0.60
2023-03-06T13:13:30.267Z,0.70
2023-03-06T13:16:34.419Z,0.60
2023-03-06T13:19:37.271Z,0.60
2023-03-06T13:22:40.511Z,0.70
2023-03-06T13:25:49.749Z,0.50
2023-03-06T13:28:54.498Z,0.50
2023-03-06T13:32:01.113Z,0.50
2023-03-06T13:35:33.042Z,0.57
2023-03-06T13:38:37.286Z,0.80
2023-03-06T13:41:55.945Z,0.60
2023-03-06T13:45:06.845Z,0.55
2023-03-06T13:48:44.273Z,0.50
2023-03-06T13:51:54.077Z,0.68
2023-03-06T13:55:53.011Z,0.65
2023-03-06T13:59:20.889Z,0.60
2023-03-06T14:03:04.076Z,0.60
2023-03-06T14:06:35.262Z,0.50
2023-03-06T14:09:41.242Z,0.70
2023-03-06T14:12:59.971Z,0.77
2023-03-06T14:16:02.708Z,0.60
2023-03-06T14:19:06.839Z,0.98
2023-03-06T14:22:17.267Z,0.70
2023-03-06T14:25:29.419Z,0.40
2023-03-06T14:28:33.503Z,0.60
2023-03-06T14:31:43.047Z,0.68
2023-03-06T14:34:46.776Z,0.63
2023-03-06T14:37:53.274Z,0.80
2023-03-06T14:40:55.734Z,0.80
2023-03-06T14:44:19.422Z,0.73
2023-03-06T14:47:33.233Z,0.68
2023-03-06T14:50:36.375Z,0.60
2023-03-06T14:53:38.474Z,0.60
2023-03-06T14:56:46.048Z,0.80
2023-03-06T14:59:58.108Z,0.70
2023-03-06T15:03:00.918Z,0.70
2023-03-06T15:06:05.736Z,0.60
2023-03-06T15:09:25.038Z,0.80
2023-03-06T15:12:30.475Z,0.80
2023-03-06T15:15:33.718Z,0.90
2023-03-06T15:18:42.604Z,0.70
2023-03-06T15:21:48.767Z,0.73
2023-03-06T15:24:50.918Z,0.70
2023-03-06T15:28:19.957Z,0.80
2023-03-06T15:31:25.218Z,0.93
2023-03-06T15:34:28.168Z,0.60
2023-03-06T15:37:31.011Z,1.00
2023-03-06T15:40:33.679Z,0.95
2023-03-06T15:43:40.285Z,1.20
2023-03-06T15:46:42.685Z,0.68
2023-03-06T15:49:45.621Z,1.15
2023-03-06T15:52:49.318Z,0.70
2023-03-06T15:55:52.625Z,0.80
2023-03-06T15:58:57.461Z,1.50
2023-03-06T16:02:04.203Z,1.00
2023-03-06T16:05:16.081Z,1.00
2023-03-06T16:08:18.103Z,1.02
2023-03-06T16:11:35.350Z,1.00
2023-03-06T16:14:45.776Z,0.98
2023-03-06T16:20:52.186Z,1.02
2023-03-06T16:23:54.909Z,0.70
2023-03-06T16:27:01.386Z,0.88
2023-03-06T16:30:05.019Z,0.90
2023-03-06T16:33:07.522Z,0.90
2023-03-06T16:36:18.031Z,0.70
2023-03-06T16:39:22.989Z,1.00
2023-03-06T16:42:25.493Z,1.90
2023-03-06T16:45:27.687Z,1.00
2023-03-06T16:48:30.217Z,0.93
2023-03-06T16:51:33.711Z,1.00
2023-03-06T16:54:36.214Z,0.90
2023-03-06T16:57:39.089Z,1.73
2023-03-06T17:00:42.074Z,1.65
2023-03-06T17:03:46.014Z,3.90
2023-03-06T17:06:49.184Z,1.80
2023-03-06T17:09:51.259Z,2.20
2023-03-06T17:13:06.202Z,1.50
2023-03-06T17:16:12.205Z,1.60
2023-03-06T17:19:18.313Z,1.38
2023-03-06T17:22:20.628Z,1.50
2023-03-06T17:25:23.781Z,1.30
2023-03-06T17:28:26.749Z,1.30
2023-03-06T17:31:34.957Z,1.27
2023-03-06T17:34:37.218Z,1.40
2023-03-06T17:37:40.358Z,1.13
2023-03-06T17:40:42.617Z,1.65
2023-03-06T17:43:44.917Z,1.13
2023-03-06T17:46:47.924Z,1.25
2023-03-06T17:49:52.509Z,1.48
2023-03-06T17:53:29.249Z,1.65
2023-03-06T17:56:40.358Z,1.52
2023-03-06T17:59:50.632Z,1.95
2023-03-06T18:03:38.827Z,1.70
2023-03-06T18:06:41.238Z,1.90
2023-03-06T18:09:45.256Z,1.80
2023-03-06T18:12:47.931Z,2.40
2023-03-06T18:15:50.617Z,2.30
2023-03-06T18:18:55.044Z,2.60
2023-03-06T18:25:01.545Z,2.42
2023-03-06T18:28:06.151Z,2.40
2023-03-06T18:31:25.003Z,4.30
2023-03-06T18:34:27.488Z,2.80
2023-03-06T18:37:29.514Z,2.60
2023-03-06T18:40:32.419Z,2.63
2023-03-06T18:43:38.494Z,2.80
2023-03-06T18:46:42.488Z,2.88
2023-03-06T18:49:46.256Z,3.10
2023-03-06T18:52:48.875Z,2.22
2023-03-06T18:55:54.539Z,3.10
2023-03-06T18:59:00.661Z,2.55
2023-03-06T19:02:03.955Z,2.97
2023-03-06T19:05:07.237Z,2.33
2023-03-06T19:08:11.271Z,2.55
2023-03-06T19:14:18.253Z,2.45
2023-03-06T19:17:20.762Z,2.28
2023-03-06T19:20:26.550Z,2.25
2023-03-06T19:23:29.941Z,4.07
2023-03-06T19:26:32.645Z,2.70
2023-03-06T19:29:36.237Z,2.40
2023-03-06T19:32:38.539Z,2.58
2023-03-06T19:35:42.404Z,2.63
2023-03-06T19:38:45.414Z,2.85
2023-03-06T19:41:48.126Z,2.47
2023-03-06T19:44:51.735Z,2.85
2023-03-06T19:47:56.066Z,2.93
2023-03-06T19:51:03.782Z,2.40
2023-03-06T19:54:06.412Z,2.55
2023-03-06T19:57:08.332Z,2.70
2023-03-06T20:00:11.926Z,2.45
2023-03-06T20:03:18.234Z,2.30
2023-03-06T20:06:22.460Z,2.10
2023-03-06T20:09:24.565Z,2.25
2023-03-06T20:12:27.657Z,2.38
2023-03-06T20:15:29.939Z,2.65
2023-03-06T20:18:33.075Z,2.42
2023-03-06T20:21:37.860Z,2.38
2023-03-06T20:24:41.830Z,2.28
2023-03-06T20:27:44.465Z,2.30
2023-03-06T20:30:49.611Z,2.08
2023-03-06T20:33:54.257Z,2.17
2023-03-06T20:36:58.054Z,2.22
2023-03-06T20:40:00.637Z,2.40
2023-03-06T20:43:03.635Z,1.98
2023-03-06T20:46:07.065Z,1.90
2023-03-06T20:49:12.958Z,6.20
2023-03-06T20:52:15.336Z,3.30
2023-03-06T20:55:18.240Z,2.25
2023-03-06T20:58:22.168Z,2.25
2023-03-06T21:01:25.892Z,2.20
2023-03-06T21:04:30.421Z,2.63
2023-03-06T21:07:33.346Z,1.85
2023-03-06T21:10:37.656Z,1.88
2023-03-06T21:13:40.449Z,2.22
2023-03-06T21:16:43.416Z,1.52
2023-03-06T21:19:46.541Z,1.80
2023-03-06T21:22:49.927Z,1.77
2023-03-06T21:25:53.606Z,2.13
2023-03-06T21:29:00.122Z,2.13
2023-03-06T21:32:04.172Z,1.90
2023-03-06T21:35:07.170Z,2.00
2023-03-06T21:38:11.418Z,1.33
2023-03-06T21:41:19.752Z,1.75
2023-03-06T21:44:22.834Z,1.45
2023-03-06T21:47:26.168Z,1.47
2023-03-06T21:50:28.941Z,1.58
2023-03-06T21:53:32.305Z,1.63
2023-03-06T21:56:34.962Z,1.30
2023-03-06T21:59:40.943Z,1.60
2023-03-06T22:02:44.734Z,1.50
2023-03-06T22:05:47.641Z,1.60
2023-03-06T22:08:50.789Z,1.50
2023-03-06T22:11:54.071Z,1.55
2023-03-06T22:14:57.000Z,1.63
2023-03-06T22:17:59.041Z,1.20
2023-03-06T22:21:10.183Z,1.42
2023-03-06T22:24:13.599Z,1.30
2023-03-06T22:27:16.417Z,1.02
2023-03-06T22:30:19.052Z,1.17
2023-03-06T22:33:21.721Z,1.10
2023-03-06T22:36:25.379Z,1.30
2023-03-06T22:39:27.758Z,1.10
2023-03-06T22:42:29.896Z,1.40
2023-03-06T22:45:34.978Z,1.13
2023-03-06T22:51:43.644Z,1.30
2023-03-06T22:54:46.519Z,1.20
2023-03-06T23:02:35.790Z,1.20
2023-03-06T23:05:42.277Z,1.10
2023-03-06T23:08:48.994Z,1.65
2023-03-06T23:11:51.492Z,0.95
2023-03-06T23:15:12.902Z,1.00
2023-03-06T23:18:37.935Z,1.10
2023-03-06T23:21:59.160Z,1.10
2023-03-06T23:25:19.963Z,0.90
2023-03-06T23:28:22.844Z,0.80
2023-03-06T23:31:30.547Z,0.90
2023-03-06T23:34:33.092Z,0.95
2023-03-06T23:37:35.381Z,0.95
2023-03-06T23:40:38.696Z,1.02
2023-03-06T23:43:42.617Z,0.80
2023-03-06T23:46:44.924Z,1.00
2023-03-06T23:49:47.418Z,0.93
2023-03-06T23:52:54.755Z,1.15
2023-03-06T23:55:57.136Z,1.08
2023-03-06T23:58:59.407Z,1.00
